Time;durP1;ratioP1;P1;durP2;ratioP2;P2;SDS_P1;SDS_P2;PMS_P1;PMS_P2;Temp;Humidity;BMP_temperature;BMP_pressure;BME280_temperature;BME280_humidity;BME280_pressure;Samples;Min_cycle;Max_cycle;Signal;HPM_P1;HPM_P2
2022/06/08 00:00:20;;;;;;;12.15;3.42;;;;;;;23.07;45.50;101187.56;5015775;28;20496;-63
2022/06/08 00:03:00;;;;;;;10.23;2.67;;;;;;;22.83;46.01;101193.66;5020470;28;20108;-63
2022/06/08 00:05:27;;;;;;;7.97;2.65;;;;;;;22.51;46.35;101204.13;5025580;28;20025;-61
2022/06/08 00:07:54;;;;;;;8.65;2.63;;;;;;;22.24;47.81;101202.56;5030721;28;20051;-65
2022/06/08 00:10:20;;;;;;;13.43;2.72;;;;;;;22.30;48.29;101206.91;5031379;28;20489;-60
2022/06/08 00:12:47;;;;;;;11.85;2.85;;;;;;;22.44;48.46;101209.06;5030328;28;20036;-67
2022/06/08 00:15:14;;;;;;;9.23;2.75;;;;;;;22.51;47.62;101215.06;5030058;28;20076;-67
2022/06/08 00:17:40;;;;;;;9.75;3.05;;;;;;;22.54;46.88;101214.47;5028569;28;20378;-61
2022/06/08 00:20:08;;;;;;;9.57;2.75;;;;;;;22.50;47.89;101205.25;5031483;28;20063;-63
2022/06/08 00:22:35;;;;;;;9.25;2.83;;;;;;;22.35;47.31;101201.44;5031131;28;20064;-64
2022/06/08 00:25:02;;;;;;;12.32;2.78;;;;;;;22.34;47.48;101202.53;5021277;28;20038;-65
2022/06/08 00:27:28;;;;;;;11.38;2.70;;;;;;;22.24;47.89;101199.81;5024148;28;20537;-62
2022/06/08 00:29:55;;;;;;;11.02;2.83;;;;;;;22.22;48.13;101210.19;5023202;28;20059;-64
2022/06/08 00:32:21;;;;;;;9.00;2.40;;;;;;;22.35;46.76;101204.16;5029691;28;20021;-67
2022/06/08 00:34:47;;;;;;;11.45;2.45;;;;;;;22.63;46.21;101204.66;5019757;28;20040;-67
2022/06/08 00:37:14;;;;;;;7.72;2.05;;;;;;;22.55;47.02;101205.22;5028288;28;20029;-59
2022/06/08 00:39:40;;;;;;;7.60;2.70;;;;;;;22.81;47.41;101206.75;5028429;28;20088;-71
2022/06/08 00:42:11;;;;;;;9.57;2.22;;;;;;;22.76;47.11;101198.59;5026075;28;20037;-63
2022/06/08 00:44:48;;;;;;;12.50;2.40;;;;;;;22.88;46.10;101207.31;5026842;28;20375;-66
2022/06/08 00:47:20;;;;;;;9.68;2.30;;;;;;;22.80;45.98;101204.31;5016930;28;20048;-65
2022/06/08 00:50:03;;;;;;;8.98;2.08;;;;;;;22.85;46.52;101205.09;5030746;28;20060;-67
2022/06/08 00:52:30;;;;;;;9.27;2.70;;;;;;;22.97;44.78;101198.53;5028828;28;20035;-65
2022/06/08 00:55:04;;;;;;;6.93;2.00;;;;;;;23.07;43.76;101196.56;5029078;28;20029;-64
2022/06/08 00:57:38;;;;;;;8.55;2.63;;;;;;;22.62;45.33;101194.84;5030011;28;20014;-65
2022/06/08 01:00:12;;;;;;;9.20;2.15;;;;;;;22.65;44.46;101195.09;5011887;28;20467;-64
2022/06/08 01:02:39;;;;;;;6.53;2.33;;;;;;;22.68;44.39;101191.00;5024192;28;20060;-65
2022/06/08 01:05:24;;;;;;;9.35;2.58;;;;;;;22.55;46.38;101206.03;5029900;28;20310;-64
2022/06/08 01:07:54;;;;;;;7.43;1.80;;;;;;;22.77;44.81;101202.97;5030137;28;20045;-65
2022/06/08 01:10:28;;;;;;;9.13;1.88;;;;;;;22.95;44.32;101208.94;5023884;28;20085;-64
2022/06/08 01:12:57;;;;;;;4.30;1.10;;;;;;;23.35;35.74;101205.97;5027300;28;20021;-66
2022/06/08 01:15:27;;;;;;;2.33;0.80;;;;;;;23.54;30.38;101192.47;5028242;28;20042;-69
2022/06/08 01:17:53;;;;;;;0.93;0.50;;;;;;;23.69;29.55;101192.38;5027808;28;20079;-63
2022/06/08 01:20:20;;;;;;;0.65;0.40;;;;;;;23.91;27.97;101189.19;5029111;28;20022;-63
2022/06/08 01:22:46;;;;;;;1.80;0.65;;;;;;;23.99;26.02;101193.25;5032620;28;20029;-68
2022/06/08 01:25:15;;;;;;;5.07;0.57;;;;;;;24.09;26.42;101200.53;5033498;28;20029;-56
2022/06/08 01:27:57;;;;;;;2.58;0.55;;;;;;;23.98;25.20;101195.13;5024587;28;20022;-57
2022/06/08 01:30:40;;;;;;;1.20;0.60;;;;;;;24.04;25.98;101189.63;5034320;28;20052;-63
2022/06/08 01:33:23;;;;;;;1.13;0.65;;;;;;;24.03;24.92;101193.47;5031685;28;20064;-61
2022/06/08 01:36:09;;;;;;;1.67;0.50;;;;;;;23.90;25.80;101195.78;5032969;28;20083;-62
2022/06/08 01:39:04;;;;;;;2.80;0.70;;;;;;;23.95;24.98;101192.19;5013705;28;20045;-66
2022/06/08 01:41:58;;;;;;;1.50;0.40;;;;;;;24.00;23.95;101203.06;5022382;28;20413;-63
2022/06/08 01:48:09;;;;;;;1.52;0.55;;;;;;;24.25;25.40;101196.53;5031787;28;20033;-61
2022/06/08 01:50:35;;;;;;;1.75;0.40;;;;;;;24.24;23.06;101201.19;5032747;28;20034;-65
2022/06/08 01:53:31;;;;;;;3.97;0.88;;;;;;;24.57;22.30;101197.88;5032854;28;20037;-68
2022/06/08 01:56:01;;;;;;;5.82;1.38;;;;;;;24.76;32.67;101196.00;5026310;28;20125;-61
2022/06/08 01:58:40;;;;;;;6.82;1.63;;;;;;;24.84;35.53;101205.50;5033266;28;20044;-61
2022/06/08 02:01:49;;;;;;;7.22;1.63;;;;;;;25.08;34.68;101192.59;5017915;28;20037;-67
2022/06/08 02:04:31;;;;;;;6.03;1.67;;;;;;;25.08;35.13;101200.81;4973579;28;20067;-67
2022/06/08 02:07:18;;;;;;;5.93;1.52;;;;;;;24.84;35.52;101200.84;5018272;28;20132;-68
2022/06/08 02:09:47;;;;;;;6.35;1.80;;;;;;;24.59;35.25;101190.19;5016021;28;20061;-66
2022/06/08 02:12:14;;;;;;;8.02;1.75;;;;;;;24.52;35.96;101192.47;5028119;28;20040;-67
2022/06/08 02:15:10;;;;;;;9.15;2.25;;;;;;;24.78;36.10;101196.53;5033666;28;20291;-67
2022/06/08 02:17:40;;;;;;;;;;;;;;;24.69;36.00;101201.00;5009071;28;20123;-62
2022/06/08 02:20:17;;;;;;;3.53;1.60;;;;;;;25.04;35.57;101194.25;5028897;28;20580;-69
2022/06/08 02:22:49;;;;;;;7.45;1.88;;;;;;;25.07;35.71;101193.72;5024102;28;20032;-67
2022/06/08 02:25:40;;;;;;;5.00;1.48;;;;;;;25.13;35.53;101203.50;5013252;28;20030;-66
2022/06/08 02:28:20;;;;;;;6.28;1.88;;;;;;;24.76;35.92;101198.72;5024039;28;20418;-64
2022/06/08 02:30:53;;;;;;;7.07;2.28;;;;;;;24.73;35.96;101205.63;5019840;28;20033;-64
2022/06/08 02:36:32;;;;;;;6.20;1.50;;;;;;;24.77;36.16;101203.13;5029976;28;20106;-61
2022/06/08 02:38:58;;;;;;;6.82;2.17;;;;;;;24.48;36.19;101206.72;5033173;28;20381;-66
2022/06/08 02:41:26;;;;;;;5.75;1.83;;;;;;;23.53;38.06;101206.41;5020506;28;20052;-64
2022/06/08 02:43:58;;;;;;;7.00;1.80;;;;;;;22.92;38.86;101192.00;5015176;28;20492;-65
2022/06/08 02:46:39;;;;;;;6.63;1.65;;;;;;;22.84;39.93;101206.22;5017998;28;20143;-65
2022/06/08 02:49:07;;;;;;;5.18;2.17;;;;;;;22.61;40.43;101195.94;5042466;28;20029;-64
2022/06/08 02:51:34;;;;;;;11.18;2.53;;;;;;;21.95;41.60;101198.75;5051856;28;20030;-64
2022/06/08 02:54:13;;;;;;;6.60;2.03;;;;;;;21.22;43.01;101204.34;5041309;28;20535;-65
2022/06/08 02:56:43;;;;;;;5.03;1.98;;;;;;;21.28;42.97;101204.09;5034922;28;20029;-65
2022/06/08 02:59:35;;;;;;;10.88;2.05;;;;;;;20.87;44.52;101213.19;5033392;28;20037;-64
2022/06/08 03:02:09;;;;;;;5.18;2.00;;;;;;;20.46;45.31;101215.69;5022329;28;20127;-64
2022/06/08 03:04:58;;;;;;;10.68;2.63;;;;;;;20.10;45.90;101210.00;5021827;28;20025;-65
2022/06/08 03:07:32;;;;;;;8.30;2.03;;;;;;;19.78;47.33;101210.81;5015259;28;20414;-64
2022/06/08 03:10:03;;;;;;;10.25;2.47;;;;;;;19.56;49.16;101215.47;5013214;28;20022;-65
2022/06/08 03:12:39;;;;;;;12.25;3.40;;;;;;;19.30;50.46;101219.81;5024941;28;20018;-64
2022/06/08 03:15:08;;;;;;;8.45;2.53;;;;;;;18.99;51.32;101218.66;5019529;28;20059;-65
2022/06/08 03:17:36;;;;;;;12.25;2.70;;;;;;;18.47;52.98;101210.88;5020302;28;20025;-65
2022/06/08 03:20:07;;;;;;;11.32;2.47;;;;;;;18.17;53.56;101217.47;5016608;28;20474;-65
2022/06/08 03:22:34;;;;;;;11.15;2.85;;;;;;;18.17;53.83;101222.91;5029528;28;20144;-64
2022/06/08 03:25:00;;;;;;;7.38;2.30;;;;;;;17.80;54.28;101222.56;5032628;28;20026;-65
2022/06/08 03:27:26;;;;;;;11.55;3.10;;;;;;;17.66;54.80;101232.84;5032875;28;20029;-65
2022/06/08 03:29:52;;;;;;;12.30;2.70;;;;;;;17.33;56.41;101225.47;5036525;28;20140;-65
2022/06/08 03:32:19;;;;;;;12.68;2.97;;;;;;;17.30;56.67;101223.22;5048037;28;20033;-64
2022/06/08 03:34:45;;;;;;;11.82;3.35;;;;;;;17.21;56.67;101224.66;5049761;28;20029;-64
2022/06/08 03:37:11;;;;;;;11.93;2.42;;;;;;;17.20;56.72;101239.25;5032468;28;20053;-64
2022/06/08 03:39:37;;;;;;;8.57;2.47;;;;;;;17.03;56.75;101230.25;5032132;28;20041;-65
2022/06/08 03:42:04;;;;;;;7.93;2.28;;;;;;;16.92;56.96;101226.53;5039592;28;20073;-64
2022/06/08 03:44:30;;;;;;;15.55;3.50;;;;;;;16.83;57.23;101222.56;5025638;28;20046;-65
2022/06/08 03:47:12;;;;;;;12.10;2.95;;;;;;;16.66;57.96;101222.44;5027786;28;20494;-64
2022/06/08 03:49:39;;;;;;;7.97;2.85;;;;;;;16.70;57.64;101234.41;5019429;28;20096;-64
2022/06/08 03:52:13;;;;;;;15.38;3.15;;;;;;;16.53;58.25;101231.59;5032343;28;20044;-64
2022/06/08 03:54:44;;;;;;;12.60;3.05;;;;;;;16.51;58.39;101225.63;5031599;28;20120;-64
2022/06/08 03:57:11;;;;;;;9.32;2.47;;;;;;;16.22;59.07;101231.97;5032255;28;20513;-65
2022/06/08 03:59:42;;;;;;;8.00;2.53;;;;;;;16.34;58.68;101227.38;5031809;28;20028;-64
2022/06/08 04:02:10;;;;;;;12.32;2.78;;;;;;;15.86;60.50;101233.78;5032184;28;20021;-64
2022/06/08 04:04:37;;;;;;;13.43;3.08;;;;;;;15.83;60.75;101234.25;5031784;28;20028;-65
2022/06/08 04:07:04;;;;;;;13.77;2.90;;;;;;;15.88;60.68;101228.97;5031834;28;20067;-64
2022/06/08 04:09:31;;;;;;;13.25;3.10;;;;;;;15.84;61.61;101244.81;5031914;28;20018;-64
2022/06/08 04:11:58;;;;;;;13.35;3.47;;;;;;;15.78;62.16;101250.31;5031873;28;20386;-64
2022/06/08 04:14:24;;;;;;;16.05;3.00;;;;;;;15.66;62.21;101241.34;5031421;28;20060;-64
2022/06/08 04:16:51;;;;;;;12.32;3.20;;;;;;;15.70;62.26;101240.66;5032220;28;20026;-64
2022/06/08 04:19:19;;;;;;;10.48;3.00;;;;;;;15.65;62.41;101247.78;5016426;28;20026;-64
2022/06/08 04:21:45;;;;;;;12.50;2.97;;;;;;;15.47;62.60;101257.53;5011584;28;20025;-64
2022/06/08 04:24:14;;;;;;;13.00;2.80;;;;;;;15.57;62.22;101247.03;5011185;28;20026;-64
2022/06/08 04:26:42;;;;;;;11.23;2.97;;;;;;;15.44;62.66;101258.03;5029689;28;20115;-64
2022/06/08 04:29:09;;;;;;;21.92;3.53;;;;;;;15.58;62.33;101264.88;5045800;28;20069;-64
2022/06/08 04:31:35;;;;;;;11.13;2.80;;;;;;;15.58;62.13;101264.03;5031437;28;20078;-64
2022/06/08 04:34:06;;;;;;;15.10;3.10;;;;;;;15.64;62.13;101270.44;5031275;28;20440;-64
2022/06/08 04:36:32;;;;;;;11.35;3.28;;;;;;;15.30;62.81;101264.63;5025493;28;20018;-64
2022/06/08 04:38:59;;;;;;;12.63;3.08;;;;;;;15.30;62.61;101257.34;5033734;28;20374;-65
2022/06/08 04:41:26;;;;;;;8.98;2.67;;;;;;;15.17;62.80;101272.88;5051566;28;20029;-64
2022/06/08 04:43:53;;;;;;;13.07;3.05;;;;;;;15.26;62.61;101276.91;5050905;28;20541;-64
2022/06/08 04:46:20;;;;;;;18.50;3.47;;;;;;;15.27;62.01;101278.56;5044724;28;20544;-64
2022/06/08 04:48:47;;;;;;;10.77;2.40;;;;;;;15.47;60.88;101283.69;5031284;28;20036;-64
2022/06/08 04:51:15;;;;;;;12.38;2.53;;;;;;;15.50;60.30;101286.78;5031173;28;20025;-64
2022/06/08 04:53:43;;;;;;;9.52;2.72;;;;;;;15.36;60.08;101274.50;5031013;28;20030;-64
2022/06/08 04:56:10;;;;;;;7.70;2.42;;;;;;;15.28;60.37;101269.44;5033935;28;20446;-64
2022/06/08 04:58:36;;;;;;;9.60;2.60;;;;;;;15.28;60.08;101272.94;5035192;28;20110;-64
2022/06/08 05:01:04;;;;;;;8.57;2.40;;;;;;;15.18;60.37;101279.91;5034783;28;20057;-64
2022/06/08 05:03:31;;;;;;;12.45;3.13;;;;;;;15.27;59.84;101287.50;5033497;28;20036;-64
2022/06/08 05:05:59;;;;;;;8.90;2.80;;;;;;;15.26;59.57;101282.28;5035046;28;20021;-64
2022/06/08 05:08:26;;;;;;;7.95;2.00;;;;;;;15.19;59.45;101295.88;5033428;28;20054;-63
2022/06/08 05:10:53;;;;;;;6.60;2.38;;;;;;;15.23;59.42;101288.97;5034520;28;20026;-64
2022/06/08 05:13:21;;;;;;;11.48;2.60;;;;;;;15.25;59.62;101280.66;5034208;28;20155;-64
2022/06/08 05:15:49;;;;;;;11.35;2.15;;;;;;;15.38;59.49;101282.34;5034507;28;20036;-64
2022/06/08 05:18:22;;;;;;;14.35;2.40;;;;;;;15.32;60.02;101281.38;5034705;28;20087;-64
2022/06/08 05:20:49;;;;;;;6.97;2.25;;;;;;;15.30;60.48;101283.50;5034540;28;20033;-64
2022/06/08 05:23:22;;;;;;;8.95;2.55;;;;;;;15.16;60.76;101292.81;5034231;28;20068;-64
2022/06/08 05:25:49;;;;;;;12.18;2.53;;;;;;;15.26;60.59;101283.13;5038115;28;20044;-64
2022/06/08 05:28:16;;;;;;;13.23;2.25;;;;;;;15.36;59.98;101292.56;5033961;28;20025;-64
2022/06/08 05:30:43;;;;;;;7.85;2.20;;;;;;;15.45;58.80;101283.13;5034142;28;20029;-64
2022/06/08 05:33:10;;;;;;;8.25;2.58;;;;;;;15.41;58.24;101280.03;5030752;28;20492;-64
2022/06/08 05:35:37;;;;;;;5.65;2.30;;;;;;;15.43;57.91;101277.94;5032949;28;20049;-64
2022/06/08 05:38:06;;;;;;;11.50;2.50;;;;;;;15.47;57.95;101284.53;5033407;28;20029;-64
2022/06/08 05:40:34;;;;;;;8.82;1.90;;;;;;;15.43;58.23;101280.63;5032111;28;20025;-64
2022/06/08 05:43:01;;;;;;;10.02;2.70;;;;;;;15.51;58.14;101285.72;5031808;28;20079;-64
2022/06/08 05:45:30;;;;;;;8.05;2.10;;;;;;;15.49;59.23;101285.13;5033956;28;20057;-64
2022/06/08 05:47:58;;;;;;;7.38;2.22;;;;;;;15.53;59.39;101278.22;5034063;28;20059;-64
2022/06/08 05:50:26;;;;;;;9.13;2.10;;;;;;;15.42;59.65;101278.16;5033942;28;20445;-64
2022/06/08 05:52:52;;;;;;;7.07;1.92;;;;;;;15.38;59.95;101275.13;5033775;28;20109;-64
2022/06/08 05:55:21;;;;;;;13.25;2.97;;;;;;;15.27;60.36;101287.50;5033826;28;20022;-64
2022/06/08 05:57:47;;;;;;;6.57;2.15;;;;;;;15.18;60.51;101283.44;5033918;28;20029;-64
2022/06/08 06:00:17;;;;;;;8.50;2.08;;;;;;;15.28;60.35;101286.44;5031639;28;20385;-64
2022/06/08 06:02:44;;;;;;;9.35;2.25;;;;;;;15.21;60.19;101276.75;5013796;28;20057;-63
2022/06/08 06:05:13;;;;;;;6.93;2.28;;;;;;;15.22;59.94;101273.03;5014163;28;20433;-64
2022/06/08 06:07:40;;;;;;;9.18;2.05;;;;;;;15.30;59.58;101281.63;5012715;28;20042;-64
2022/06/08 06:10:07;;;;;;;8.02;2.60;;;;;;;15.16;60.33;101287.44;5013731;28;20385;-64
2022/06/08 06:12:34;;;;;;;8.30;1.67;;;;;;;15.01;60.60;101280.53;5029873;28;20336;-64
2022/06/08 06:15:01;;;;;;;7.50;2.10;;;;;;;15.12;60.12;101286.22;5033581;28;20508;-64
2022/06/08 06:17:30;;;;;;;8.48;2.08;;;;;;;15.09;60.49;101292.03;5033781;28;20033;-63
2022/06/08 06:19:57;;;;;;;10.73;2.55;;;;;;;15.18;59.67;101285.31;5033641;28;20026;-64
2022/06/08 06:22:23;;;;;;;8.45;2.38;;;;;;;14.99;59.70;101282.63;5033037;28;20075;-64
2022/06/08 06:24:50;;;;;;;9.70;3.15;;;;;;;15.03;59.46;101283.81;5033107;28;20030;-64
2022/06/08 06:27:16;;;;;;;6.72;1.70;;;;;;;14.95;59.82;101277.91;5033185;28;20029;-64
2022/06/08 06:29:42;;;;;;;7.00;2.05;;;;;;;14.89;59.66;101276.94;5033758;28;20494;-64
2022/06/08 06:32:23;;;;;;;7.18;2.03;;;;;;;14.95;59.40;101270.63;5015653;28;20032;-64
2022/06/08 06:34:49;;;;;;;5.68;2.13;;;;;;;15.04;58.97;101271.97;5033273;28;20181;-64
2022/06/08 06:37:15;;;;;;;8.95;2.25;;;;;;;14.89;59.54;101282.31;5018709;28;20052;-64
2022/06/08 06:39:42;;;;;;;9.63;2.28;;;;;;;14.86;59.69;101293.53;5032993;28;20045;-64
2022/06/08 06:42:19;;;;;;;10.85;2.03;;;;;;;14.82;59.55;101286.94;5033095;28;20022;-64
2022/06/08 06:44:45;;;;;;;8.63;2.47;;;;;;;14.95;58.97;101281.41;5024605;28;20055;-63
2022/06/08 06:47:12;;;;;;;7.47;2.13;;;;;;;14.95;58.72;101297.59;5032946;28;20556;-64
2022/06/08 06:49:38;;;;;;;8.13;2.05;;;;;;;15.03;58.32;101296.47;5032855;28;20453;-63
2022/06/08 06:52:05;;;;;;;4.97;1.98;;;;;;;15.01;58.64;101299.38;5032826;28;20509;-64
2022/06/08 06:54:32;;;;;;;6.88;2.08;;;;;;;15.08;58.68;101293.91;5032572;28;20124;-63
2022/06/08 06:56:58;;;;;;;8.70;2.42;;;;;;;14.85;59.76;101285.69;5032691;28;20032;-63
2022/06/08 06:59:25;;;;;;;7.25;1.80;;;;;;;14.85;60.56;101286.50;5032665;28;20026;-64
2022/06/08 07:01:51;;;;;;;8.23;2.20;;;;;;;15.09;59.91;101294.75;5032822;28;20127;-63
2022/06/08 07:04:18;;;;;;;7.10;2.20;;;;;;;15.11;59.80;101298.88;5032265;28;20103;-63
2022/06/08 07:06:44;;;;;;;10.50;2.15;;;;;;;15.20;60.20;101299.38;5032132;28;20124;-63
2022/06/08 07:09:11;;;;;;;10.45;2.28;;;;;;;15.19;60.50;101308.53;5032722;28;20410;-63
2022/06/08 07:11:40;;;;;;;8.25;1.95;;;;;;;15.20;60.82;101304.78;5032511;28;20037;-63
2022/06/08 07:14:16;;;;;;;7.82;2.42;;;;;;;15.23;60.24;101301.66;5032621;28;20053;-63
2022/06/08 07:16:45;;;;;;;7.30;2.20;;;;;;;15.30;59.87;101297.00;5032494;28;20392;-63
2022/06/08 07:19:12;;;;;;;12.50;2.08;;;;;;;15.14;59.85;101305.69;5032282;28;20036;-63
2022/06/08 07:21:39;;;;;;;6.53;1.67;;;;;;;15.09;59.54;101300.13;5032157;28;20112;-64
2022/06/08 07:24:06;;;;;;;9.30;1.98;;;;;;;15.16;59.14;101293.63;5032237;28;20116;-64
2022/06/08 07:26:33;;;;;;;8.27;1.95;;;;;;;15.12;59.13;101288.91;5018246;28;20029;-63
2022/06/08 07:28:59;;;;;;;5.57;1.75;;;;;;;14.89;59.85;101292.28;5021162;28;20037;-65
2022/06/08 07:31:27;;;;;;;10.27;2.20;;;;;;;14.95;59.42;101292.19;5032115;28;20112;-64
2022/06/08 07:33:54;;;;;;;8.73;2.38;;;;;;;15.02;58.91;101294.81;5019792;28;20023;-64
2022/06/08 07:36:21;;;;;;;7.25;2.20;;;;;;;14.88;56.79;101285.22;5031957;28;20555;-64
2022/06/08 07:38:47;;;;;;;8.50;1.83;;;;;;;14.99;56.37;101290.72;5032038;28;20097;-64
2022/06/08 07:41:14;;;;;;;6.93;2.05;;;;;;;15.02;56.59;101284.03;5031563;28;20029;-64
2022/06/08 07:43:40;;;;;;;8.13;1.85;;;;;;;14.95;58.22;101294.91;5031682;28;20120;-64
2022/06/08 07:46:07;;;;;;;10.18;2.30;;;;;;;15.00;58.40;101284.28;5019986;28;20021;-64
2022/06/08 07:51:18;;;;;;;7.70;1.92;;;;;;;14.80;59.12;101283.66;5032134;28;20500;-64
2022/06/08 07:53:45;;;;;;;7.65;2.22;;;;;;;14.78;59.05;101280.38;5031676;28;20037;-64
2022/06/08 07:56:11;;;;;;;7.10;2.25;;;;;;;14.73;58.26;101272.13;5031982;28;20033;-64
2022/06/08 07:58:37;;;;;;;7.22;1.92;;;;;;;14.72;58.48;101262.41;5031885;28;20486;-64
2022/06/08 08:01:05;;;;;;;8.73;1.77;;;;;;;14.74;58.38;101265.69;5045783;22;20046;-64
2022/06/08 08:03:32;;;;;;;11.70;2.30;;;;;;;14.66;58.70;101257.91;5054861;28;20029;-64
2022/06/08 08:05:59;;;;;;;6.00;2.08;;;;;;;14.66;58.62;101252.50;5051202;28;20025;-64
2022/06/08 08:08:25;;;;;;;9.32;1.83;;;;;;;14.77;58.49;101255.28;5068794;28;20056;-64
2022/06/08 08:10:52;;;;;;;6.18;1.75;;;;;;;14.75;58.31;101249.28;5062961;28;20388;-64
2022/06/08 08:13:18;;;;;;;6.90;1.83;;;;;;;14.80;58.29;101251.31;5071414;28;20021;-63
2022/06/08 08:15:45;;;;;;;6.88;1.73;;;;;;;14.70;58.55;101251.00;5070637;28;20028;-64
2022/06/08 08:18:12;;;;;;;7.18;1.52;;;;;;;14.65;58.45;101253.53;5070575;28;20043;-65
2022/06/08 08:20:39;;;;;;;8.63;1.80;;;;;;;14.61;58.69;101255.88;5071337;28;20024;-64
2022/06/08 08:23:06;;;;;;;8.85;1.60;;;;;;;14.66;58.48;101263.28;5056071;28;20029;-64
2022/06/08 08:25:32;;;;;;;9.95;1.90;;;;;;;14.78;57.97;101265.03;5070948;28;20033;-64
2022/06/08 08:27:59;;;;;;;8.10;2.42;;;;;;;14.73;58.24;101261.34;5051718;28;20033;-64
2022/06/08 08:30:32;;;;;;;9.15;2.28;;;;;;;14.72;57.96;101257.81;5053480;28;20499;-64
2022/06/08 08:32:59;;;;;;;6.15;1.50;;;;;;;14.73;57.64;101256.78;5074214;28;20029;-64
2022/06/08 08:35:27;;;;;;;5.70;2.10;;;;;;;14.74;57.57;101258.41;5075228;28;20124;-64
2022/06/08 08:37:55;;;;;;;3.45;1.30;;;;;;;14.72;57.64;101247.06;5072616;28;20023;-64
2022/06/08 08:40:36;;;;;;;9.80;2.22;;;;;;;14.71;58.13;101247.25;5075481;28;20094;-64
2022/06/08 08:43:03;;;;;;;8.05;1.70;;;;;;;14.87;57.37;101241.28;5073677;28;20154;-64
2022/06/08 08:45:34;;;;;;;8.68;1.90;;;;;;;14.88;57.22;101244.78;5075465;28;20070;-65
2022/06/08 08:48:06;;;;;;;4.72;1.52;;;;;;;14.56;58.24;101244.94;5056420;28;20040;-64
2022/06/08 08:50:54;;;;;;;12.18;2.25;;;;;;;14.71;57.98;101241.88;5054868;28;20094;-65
2022/06/08 08:53:29;;;;;;;9.68;1.85;;;;;;;14.70;58.00;101238.34;5074699;28;20032;-64
2022/06/08 08:56:03;;;;;;;9.23;1.73;;;;;;;14.70;57.94;101242.91;5071529;28;20120;-64
2022/06/08 08:58:39;;;;;;;4.00;1.60;;;;;;;14.67;58.08;101240.69;5061430;28;20060;-64
2022/06/08 09:01:15;;;;;;;4.85;1.58;;;;;;;14.60;58.47;101226.44;5070289;28;20436;-64
2022/06/08 09:03:46;;;;;;;5.88;1.92;;;;;;;14.60;58.22;101218.34;5054187;28;20474;-64
2022/06/08 09:06:14;;;;;;;9.00;2.38;;;;;;;14.59;58.42;101227.50;5056795;28;20016;-64
2022/06/08 09:08:45;;;;;;;6.43;1.90;;;;;;;14.49;58.12;101218.06;5055458;28;20115;-64
2022/06/08 09:11:25;;;;;;;8.48;1.67;;;;;;;14.37;58.02;101214.41;5056359;28;20028;-65
2022/06/08 09:13:57;;;;;;;8.18;2.00;;;;;;;14.51;57.75;101224.03;5072255;28;20115;-64
2022/06/08 09:16:39;;;;;;;5.28;1.77;;;;;;;14.43;57.94;101220.78;5061271;28;20044;-64
2022/06/08 09:19:25;;;;;;;11.30;2.42;;;;;;;14.49;57.72;101218.06;5053454;28;20052;-64
2022/06/08 09:21:54;;;;;;;6.07;1.63;;;;;;;14.65;57.68;101231.97;5054990;28;20131;-65
2022/06/08 09:24:35;;;;;;;6.05;1.80;;;;;;;14.79;57.06;101237.00;5053757;28;20029;-64
2022/06/08 09:27:23;;;;;;;4.90;1.55;;;;;;;14.73;57.81;101234.41;5051975;28;20048;-65
2022/06/08 09:30:04;;;;;;;6.13;1.50;;;;;;;14.77;58.19;101246.38;5060304;28;20032;-64
2022/06/08 09:32:35;;;;;;;6.45;1.65;;;;;;;14.74;58.52;101249.50;5051308;28;20432;-64
2022/06/08 09:35:05;;;;;;;5.63;1.48;;;;;;;14.76;58.18;101256.31;5043569;28;20370;-64
2022/06/08 09:37:32;;;;;;;8.57;2.30;;;;;;;14.87;58.02;101248.53;5065791;28;20032;-65
2022/06/08 09:40:01;;;;;;;6.75;2.25;;;;;;;14.79;58.45;101236.19;5074306;28;20032;-64
2022/06/08 09:42:44;;;;;;;3.25;1.38;;;;;;;14.83;58.44;101237.41;5071852;28;20111;-64
2022/06/08 09:45:28;;;;;;;10.15;2.05;;;;;;;14.71;58.45;101234.63;5054755;28;20108;-64
2022/06/08 09:51:28;;;;;;;9.05;2.00;;;;;;;14.73;58.35;101246.00;5055803;28;20159;-65
2022/06/08 09:54:02;;;;;;;7.82;1.90;;;;;;;14.67;57.79;101233.41;5053732;28;20435;-65
2022/06/08 09:56:49;;;;;;;6.93;2.30;;;;;;;14.57;58.19;101229.59;5053461;28;20031;-65
2022/06/08 09:59:46;;;;;;;5.80;1.52;;;;;;;14.52;58.42;101228.38;5053870;28;20049;-64
2022/06/08 10:02:40;;;;;;;8.52;1.80;;;;;;;14.41;59.01;101225.56;5052561;28;20095;-65
2022/06/08 10:05:34;;;;;;;9.38;1.88;;;;;;;14.30;59.21;101224.44;5055285;28;20178;-64
2022/06/08 10:08:21;;;;;;;6.75;1.90;;;;;;;14.48;59.01;101239.81;5053341;28;20024;-64
2022/06/08 10:11:01;;;;;;;7.45;2.05;;;;;;;14.23;59.89;101231.75;5053597;28;20029;-64
2022/06/08 10:13:39;;;;;;;6.13;1.50;;;;;;;14.36;59.67;101228.91;5061117;28;20085;-64
2022/06/08 10:16:16;;;;;;;11.05;2.20;;;;;;;14.26;59.88;101233.97;5073392;28;20036;-64
2022/06/08 10:18:49;;;;;;;6.35;1.40;;;;;;;14.31;59.75;101231.44;5061812;28;20021;-64
2022/06/08 10:21:23;;;;;;;8.60;2.25;;;;;;;14.21;59.69;101226.59;5053371;28;20033;-64
2022/06/08 10:23:59;;;;;;;7.07;1.67;;;;;;;14.17;60.01;101224.56;5066847;28;20021;-64
2022/06/08 10:26:28;;;;;;;13.68;1.67;;;;;;;14.18;60.17;101221.63;5063212;28;20029;-64
2022/06/08 10:29:12;;;;;;;6.38;1.42;;;;;;;14.19;60.04;101211.69;5053448;28;20102;-64
2022/06/08 10:31:47;;;;;;;17.00;2.20;;;;;;;14.03;60.18;101207.66;5055631;28;20017;-64
2022/06/08 10:34:27;;;;;;;10.52;1.70;;;;;;;14.02;59.95;101211.41;5073259;28;20507;-64
2022/06/08 10:37:29;;;;;;;7.78;1.70;;;;;;;14.02;60.17;101205.22;5061704;28;20029;-64
2022/06/08 10:39:55;;;;;;;5.47;1.58;;;;;;;13.97;59.82;101195.09;5049367;28;20556;-64
2022/06/08 10:42:40;;;;;;;9.57;1.98;;;;;;;14.11;59.18;101180.50;5052143;28;20514;-64
2022/06/08 10:45:42;;;;;;;7.95;2.00;;;;;;;14.03;59.65;101186.13;5053071;28;20115;-64
2022/06/08 10:48:14;;;;;;;4.53;1.60;;;;;;;14.07;59.82;101181.97;5036885;28;20044;-64
2022/06/08 10:50:46;;;;;;;2.65;1.15;;;;;;;14.06;59.89;101182.19;5052043;28;20493;-63
2022/06/08 10:56:24;;;;;;;8.00;1.48;;;;;;;13.99;60.50;101195.69;5061173;28;20075;-63
2022/06/08 10:59:16;;;;;;;5.03;1.42;;;;;;;14.13;59.92;101199.09;5060111;28;20070;-64
2022/06/08 11:02:12;;;;;;;9.10;2.38;;;;;;;13.99;59.79;101210.00;5072556;28;20040;-64
2022/06/08 11:04:53;;;;;;;6.85;1.70;;;;;;;14.18;59.46;101210.03;5055365;28;20063;-64
2022/06/08 11:07:22;;;;;;;7.50;1.35;;;;;;;14.08;59.77;101212.41;5052513;28;20044;-63
2022/06/08 11:09:52;;;;;;;7.15;1.30;;;;;;;14.28;58.96;101213.06;5054354;28;20045;-63
2022/06/08 11:12:33;;;;;;;5.50;1.40;;;;;;;14.21;59.24;101201.50;5034580;28;20029;-64
2022/06/08 11:15:20;;;;;;;6.50;1.50;;;;;;;14.11;60.24;101199.34;5049957;28;20120;-63
2022/06/08 11:18:01;;;;;;;6.60;1.40;;;;;;;14.06;60.33;101193.78;5052066;28;20520;-64
2022/06/08 11:21:02;;;;;;;10.20;2.03;;;;;;;14.14;59.82;101193.50;5056058;28;20071;-63
2022/06/08 11:23:40;;;;;;;6.63;1.80;;;;;;;14.17;59.28;101178.78;5048417;28;20033;-63
2022/06/08 11:26:25;;;;;;;8.93;1.80;;;;;;;14.28;58.88;101178.06;5053064;28;20081;-63
2022/06/08 11:29:15;;;;;;;7.30;1.65;;;;;;;14.29;58.65;101189.66;5055721;28;20056;-63
2022/06/08 11:31:41;;;;;;;5.47;1.60;;;;;;;14.28;58.66;101194.22;5056813;28;20032;-63
2022/06/08 11:34:20;;;;;;;12.55;1.70;;;;;;;14.27;59.71;101188.00;5054857;28;20021;-63
2022/06/08 11:37:04;;;;;;;6.50;1.35;;;;;;;14.32;60.07;101190.00;5052065;28;20057;-63
2022/06/08 11:39:43;;;;;;;6.88;1.60;;;;;;;14.35;60.08;101186.88;5034204;28;20029;-64
2022/06/08 11:42:24;;;;;;;4.65;1.73;;;;;;;14.22;60.68;101189.72;5051630;28;20048;-63
2022/06/08 11:44:57;;;;;;;5.55;1.65;;;;;;;14.23;60.75;101186.78;5055896;28;20036;-63
2022/06/08 11:47:56;;;;;;;8.63;1.33;;;;;;;14.28;60.81;101191.53;5051744;28;20415;-63
2022/06/08 11:50:32;;;;;;;5.70;1.50;;;;;;;14.41;60.70;101191.38;5034847;28;20041;-63
2022/06/08 11:53:03;;;;;;;7.05;1.40;;;;;;;14.41;60.62;101188.69;5054469;28;20473;-63
2022/06/08 11:55:33;;;;;;;5.68;1.55;;;;;;;14.20;60.85;101198.00;5071700;28;20040;-63
2022/06/08 11:58:05;;;;;;;8.27;1.42;;;;;;;14.22;60.55;101201.31;5071667;28;20059;-63
2022/06/08 12:00:51;;;;;;;6.25;1.30;;;;;;;14.31;60.06;101207.22;5058244;28;20032;-64
2022/06/08 12:03:17;;;;;;;5.55;1.73;;;;;;;14.28;60.66;101204.97;5071067;28;20024;-63